Time;durP1;ratioP1;P1;durP2;ratioP2;P2;SDS_P1;SDS_P2;PMS_P1;PMS_P2;Temp;Humidity;BMP_temperature;BMP_pressure;BME280_temperature;BME280_humidity;BME280_pressure;Samples;Min_cycle;Max_cycle;Signal;HPM_P1;HPM_P2
2023/04/18 00:04:34;;;;;;;14.55;7.10;;;;;;;10.39;55.66;101034.75;10170495;29;20497;-62
2023/04/18 00:09:35;;;;;;;9.93;6.95;;;;;;;10.36;55.54;101035.91;10169327;29;20073;-62
2023/04/18 00:14:37;;;;;;;9.32;6.45;;;;;;;10.31;55.74;101028.31;10174056;29;20066;-62
2023/04/18 00:19:42;;;;;;;12.45;6.68;;;;;;;10.33;55.60;101025.47;10181796;29;20049;-61
2023/04/18 00:24:43;;;;;;;13.18;6.93;;;;;;;10.27;55.80;101026.91;10179757;29;20056;-62
2023/04/18 00:29:44;;;;;;;13.82;6.93;;;;;;;10.20;56.03;101025.03;10180186;29;20133;-61
2023/04/18 00:34:46;;;;;;;10.38;7.10;;;;;;;10.18;56.05;101019.78;10176772;29;20048;-61
2023/04/18 00:39:47;;;;;;;11.45;7.10;;;;;;;10.15;55.88;101025.50;10178450;29;20084;-61
2023/04/18 00:44:48;;;;;;;10.95;6.80;;;;;;;10.09;56.21;101018.03;10174580;29;20048;-62
2023/04/18 00:49:50;;;;;;;14.43;7.15;;;;;;;10.02;56.29;101023.19;10172492;29;20468;-62
2023/04/18 00:54:52;;;;;;;14.35;7.43;;;;;;;9.95;56.38;101019.44;10178669;29;20056;-61
2023/04/18 00:59:53;;;;;;;12.48;6.85;;;;;;;9.83;56.67;101023.38;10173749;29;20060;-63
2023/04/18 01:04:57;;;;;;;14.57;7.43;;;;;;;9.67;57.29;101032.97;10171107;29;20067;-62
2023/04/18 01:10:00;;;;;;;10.13;7.53;;;;;;;9.62;57.07;101019.16;10169821;29;20139;-62
2023/04/18 01:15:03;;;;;;;11.52;7.32;;;;;;;9.60;57.34;101023.84;10175562;29;20047;-61
2023/04/18 01:20:05;;;;;;;13.05;7.80;;;;;;;9.53;57.41;101017.38;10170024;29;20051;-62
2023/04/18 01:25:08;;;;;;;15.90;7.82;;;;;;;9.45;57.43;101009.25;10171762;29;20469;-61
2023/04/18 01:30:09;;;;;;;12.52;7.85;;;;;;;9.35;58.08;101009.34;10170475;29;20071;-61
2023/04/18 01:35:11;;;;;;;9.95;6.85;;;;;;;9.26;58.34;101008.41;10165509;29;20070;-61
2023/04/18 01:40:12;;;;;;;12.68;7.18;;;;;;;9.28;58.17;101003.75;10171691;29;20055;-61
2023/04/18 01:45:14;;;;;;;9.82;6.30;;;;;;;9.18;58.15;100999.41;10169911;29;20052;-62
2023/04/18 01:50:16;;;;;;;14.07;7.85;;;;;;;9.13;58.77;100997.19;10170067;29;20089;-61
2023/04/18 01:55:17;;;;;;;13.18;7.88;;;;;;;9.05;58.44;100997.94;10174401;29;20048;-61
2023/04/18 02:00:19;;;;;;;16.63;7.90;;;;;;;8.97;58.75;100992.50;10170354;29;20060;-62
2023/04/18 02:05:21;;;;;;;11.93;7.75;;;;;;;8.90;59.07;100986.84;10164231;29;20056;-61
2023/04/18 02:10:22;;;;;;;15.02;8.57;;;;;;;8.88;59.18;100996.06;10163936;29;20048;-62
2023/04/18 02:15:24;;;;;;;11.25;8.02;;;;;;;8.82;59.85;100993.97;10165669;29;20111;-60
2023/04/18 02:20:27;;;;;;;15.23;8.45;;;;;;;8.73;59.50;100987.69;10168621;29;20127;-62
2023/04/18 02:25:29;;;;;;;18.60;9.35;;;;;;;8.67;60.10;100988.28;10158997;29;20051;-61
2023/04/18 02:30:30;;;;;;;14.63;9.38;;;;;;;8.62;59.84;100988.69;10160821;29;20071;-61
2023/04/18 02:35:32;;;;;;;14.13;8.63;;;;;;;8.64;60.06;100997.44;10167288;29;20052;-62
2023/04/18 02:40:33;;;;;;;23.38;10.65;;;;;;;8.61;60.25;100996.88;10160654;29;20048;-63
2023/04/18 02:45:35;;;;;;;14.82;9.38;;;;;;;8.48;60.38;100997.22;10160713;29;20044;-61
2023/04/18 02:50:36;;;;;;;14.55;8.55;;;;;;;8.48;61.19;100995.38;10160739;29;20052;-63
2023/04/18 02:55:37;;;;;;;13.80;9.07;;;;;;;8.43;61.17;100992.31;10162347;29;20065;-61
2023/04/18 03:00:39;;;;;;;17.13;10.95;;;;;;;8.37;61.06;100997.34;10168676;29;20056;-63
2023/04/18 03:05:40;;;;;;;14.25;9.25;;;;;;;8.27;61.94;101002.75;10160573;29;20324;-61
2023/04/18 03:10:42;;;;;;;18.02;9.52;;;;;;;8.20;61.68;101010.53;10167968;29;20063;-62
2023/04/18 03:15:43;;;;;;;17.15;9.75;;;;;;;8.18;62.33;101006.31;10166001;29;20055;-62
2023/04/18 03:20:45;;;;;;;15.02;9.43;;;;;;;8.09;62.67;101005.31;10165516;29;20053;-63
2023/04/18 03:25:46;;;;;;;15.57;9.77;;;;;;;8.06;62.69;101005.63;10165846;29;20036;-63
2023/04/18 03:30:47;;;;;;;20.02;11.15;;;;;;;8.06;62.63;101006.47;10163403;29;20531;-62
2023/04/18 03:35:49;;;;;;;19.17;12.07;;;;;;;8.10;63.14;101007.03;10160848;29;20590;-61
2023/04/18 03:40:51;;;;;;;18.95;11.50;;;;;;;8.10;63.23;101007.03;10163829;29;20128;-62
2023/04/18 03:45:52;;;;;;;21.17;12.45;;;;;;;8.16;63.08;101010.97;10165340;29;20072;-61
2023/04/18 03:50:54;;;;;;;20.77;12.85;;;;;;;8.25;63.52;101008.22;10168347;29;20063;-62
2023/04/18 03:55:55;;;;;;;25.42;13.43;;;;;;;8.30;63.58;101011.34;10174520;29;20053;-62
2023/04/18 04:00:56;;;;;;;22.60;12.60;;;;;;;8.33;63.56;101002.16;10177890;29;20085;-63
2023/04/18 04:05:58;;;;;;;22.30;13.43;;;;;;;8.34;63.34;101006.53;10178472;29;20063;-61
2023/04/18 04:10:59;;;;;;;27.23;14.75;;;;;;;8.32;63.40;101006.69;10177081;29;20049;-63
2023/04/18 04:16:01;;;;;;;21.17;11.32;;;;;;;8.39;63.59;101003.41;10175574;29;20056;-61
2023/04/18 04:21:04;;;;;;;23.42;12.30;;;;;;;8.45;64.11;101000.19;10179493;29;20048;-63
2023/04/18 04:26:07;;;;;;;19.50;10.70;;;;;;;8.50;64.04;101009.47;10167918;29;20120;-65
2023/04/18 04:31:09;;;;;;;17.83;10.30;;;;;;;8.60;63.68;101011.28;10146925;29;20474;-67
2023/04/18 04:36:13;;;;;;;20.60;11.25;;;;;;;8.71;63.37;101019.16;10183550;29;20108;-67
2023/04/18 04:41:17;;;;;;;15.95;9.75;;;;;;;8.76;63.19;101024.91;10179864;29;20040;-65
2023/04/18 04:46:19;;;;;;;19.55;10.13;;;;;;;8.77;63.22;101026.59;10175651;29;20084;-68
2023/04/18 04:51:21;;;;;;;15.18;9.05;;;;;;;8.80;62.91;101023.59;10179566;29;20052;-67
2023/04/18 04:56:22;;;;;;;14.80;8.40;;;;;;;8.85;62.76;101031.22;10178369;29;20063;-67
2023/04/18 05:01:24;;;;;;;17.48;8.32;;;;;;;8.88;63.27;101023.69;10175634;29;20276;-69
2023/04/18 05:06:26;;;;;;;15.02;8.60;;;;;;;9.02;62.74;101029.56;10169780;29;20052;-65
2023/04/18 05:11:27;;;;;;;16.65;9.60;;;;;;;9.11;63.09;101023.31;10176878;29;20052;-67
2023/04/18 05:16:29;;;;;;;16.50;8.35;;;;;;;9.22;62.39;101033.00;10184116;29;20045;-66
2023/04/18 05:21:30;;;;;;;17.17;9.30;;;;;;;9.27;62.55;101028.88;10169407;29;20084;-66
2023/04/18 05:26:31;;;;;;;17.05;9.38;;;;;;;9.46;62.49;101040.50;10157825;29;20067;-67
2023/04/18 05:31:33;;;;;;;13.48;8.15;;;;;;;9.60;62.10;101039.94;10160048;29;20068;-64
2023/04/18 05:36:35;;;;;;;13.18;8.52;;;;;;;9.61;62.02;101035.41;10172906;29;20068;-63
2023/04/18 05:41:36;;;;;;;14.98;8.13;;;;;;;9.76;61.80;101041.94;10189313;29;20175;-63
2023/04/18 05:46:38;;;;;;;14.82;8.93;;;;;;;9.84;61.82;101046.56;10157925;29;20037;-64
2023/04/18 05:51:39;;;;;;;13.43;7.78;;;;;;;9.95;61.23;101042.78;10182959;29;20104;-67
2023/04/18 05:56:41;;;;;;;11.60;7.45;;;;;;;10.08;61.28;101044.06;10150670;29;20056;-68
2023/04/18 06:01:43;;;;;;;12.90;8.45;;;;;;;10.23;60.97;101039.00;10156432;29;20052;-58
2023/04/18 06:06:44;;;;;;;13.05;7.75;;;;;;;10.40;60.62;101053.41;10145249;29;20056;-58
2023/04/18 06:11:46;;;;;;;14.10;7.93;;;;;;;10.49;60.75;101048.94;10146936;29;20084;-67
2023/04/18 06:16:47;;;;;;;11.48;7.78;;;;;;;10.64;60.27;101065.31;10144516;29;20108;-66
2023/04/18 06:21:49;;;;;;;9.65;6.53;;;;;;;10.80;59.87;101072.63;10150095;29;20483;-64
2023/04/18 06:26:51;;;;;;;12.20;6.28;;;;;;;10.83;59.63;101073.16;10154297;29;20052;-66
2023/04/18 06:31:52;;;;;;;11.82;7.20;;;;;;;10.87;59.87;101063.75;10146997;29;20077;-67
2023/04/18 06:36:54;;;;;;;11.13;6.97;;;;;;;10.95;59.61;101078.28;10147251;29;20056;-65
2023/04/18 06:41:56;;;;;;;9.20;6.53;;;;;;;10.95;59.59;101084.47;10149656;29;20060;-67
2023/04/18 06:46:58;;;;;;;11.45;6.88;;;;;;;10.99;59.39;101095.78;10147049;29;20500;-65
2023/04/18 06:51:59;;;;;;;10.18;6.25;;;;;;;11.03;59.10;101100.66;10151112;29;20112;-66
2023/04/18 06:57:02;;;;;;;8.52;6.60;;;;;;;11.12;59.22;101098.88;10152190;29;20071;-64
2023/04/18 07:02:03;;;;;;;9.02;6.25;;;;;;;11.14;59.13;101104.94;10148192;29;20076;-66
2023/04/18 07:07:05;;;;;;;10.98;5.53;;;;;;;11.19;59.44;101094.50;10143724;29;20449;-65
2023/04/18 07:12:06;;;;;;;6.60;4.80;;;;;;;11.17;59.29;101098.38;10144219;29;20081;-66
2023/04/18 07:17:08;;;;;;;6.60;4.85;;;;;;;11.32;59.20;101103.00;10146061;29;20496;-65
2023/04/18 07:22:09;;;;;;;6.93;4.47;;;;;;;11.52;58.76;101100.88;10143677;29;20108;-65
2023/04/18 07:27:11;;;;;;;8.65;4.13;;;;;;;11.67;58.39;101084.94;10143837;29;20052;-66
2023/04/18 07:32:12;;;;;;;6.70;4.07;;;;;;;11.83;58.07;101089.50;10132771;29;20535;-66
2023/04/18 07:37:15;;;;;;;5.05;3.88;;;;;;;11.96;58.08;101091.72;10152409;29;20067;-66
2023/04/18 07:42:16;;;;;;;5.20;3.83;;;;;;;12.16;57.55;101091.41;10147910;29;20059;-65
2023/04/18 07:47:18;;;;;;;4.63;3.92;;;;;;;12.30;57.36;101091.59;10147766;29;20056;-67
2023/04/18 07:52:22;;;;;;;6.80;4.28;;;;;;;12.42;56.91;101096.63;10147008;29;20055;-63
2023/04/18 07:57:24;;;;;;;8.95;4.25;;;;;;;12.52;57.14;101091.91;10159871;29;20088;-66
2023/04/18 08:02:25;;;;;;;9.15;4.57;;;;;;;12.74;56.54;101090.34;10154284;29;20052;-64
2023/04/18 08:07:27;;;;;;;6.88;4.57;;;;;;;13.02;56.06;101104.28;10150794;29;20048;-66
2023/04/18 08:12:28;;;;;;;8.43;4.07;;;;;;;13.17;55.69;101104.41;10145584;29;20049;-64
2023/04/18 08:17:30;;;;;;;8.30;4.47;;;;;;;13.32;55.56;101098.28;10148074;29;20067;-63
2023/04/18 08:22:32;;;;;;;10.85;6.50;;;;;;;13.39;55.79;101096.56;10145296;29;20053;-66
2023/04/18 08:27:33;;;;;;;9.23;5.30;;;;;;;13.67;54.90;101095.06;10144257;29;20083;-66
2023/04/18 08:32:35;;;;;;;6.03;4.53;;;;;;;13.81;54.98;101095.31;10150605;29;20690;-65
2023/04/18 08:37:38;;;;;;;6.90;4.53;;;;;;;14.12;54.74;101097.13;10144961;29;20048;-66
2023/04/18 08:42:42;;;;;;;8.18;4.78;;;;;;;14.27;54.42;101101.56;10153333;29;20120;-65
2023/04/18 08:47:43;;;;;;;6.65;4.65;;;;;;;14.47;53.96;101101.91;10150024;29;20444;-65
2023/04/18 08:52:48;;;;;;;9.00;4.88;;;;;;;14.72;53.40;101101.69;10155771;29;20057;-65
2023/04/18 08:57:52;;;;;;;6.95;4.22;;;;;;;14.90;53.13;101104.03;10153933;29;20068;-65
2023/04/18 09:02:57;;;;;;;8.98;5.07;;;;;;;14.90;53.43;101100.50;10152922;29;20060;-67
2023/04/18 09:08:25;;;;;;;7.50;5.15;;;;;;;14.98;53.11;101103.94;10156893;29;20152;-64
2023/04/18 09:13:38;;;;;;;7.18;4.82;;;;;;;15.06;53.04;101092.19;10150400;29;20076;-66
2023/04/18 09:18:43;;;;;;;8.90;4.80;;;;;;;15.32;52.28;101091.69;10155628;29;20417;-65
2023/04/18 09:23:49;;;;;;;7.93;5.38;;;;;;;15.36;52.19;101092.16;10151882;29;20147;-64
2023/04/18 09:28:51;;;;;;;8.68;5.38;;;;;;;15.41;52.31;101089.72;10165231;29;20052;-61
2023/04/18 09:33:55;;;;;;;7.25;5.25;;;;;;;15.59;51.58;101092.88;10167455;29;20103;-59
2023/04/18 09:38:57;;;;;;;6.85;4.13;;;;;;;15.79;51.30;101089.56;10144901;29;20044;-58
2023/04/18 09:44:13;;;;;;;8.30;4.75;;;;;;;15.92;50.74;101084.28;10164642;29;20045;-61
2023/04/18 09:49:16;;;;;;;8.40;4.90;;;;;;;16.16;50.43;101085.78;10169582;29;20119;-59
2023/04/18 09:54:19;;;;;;;7.13;5.20;;;;;;;16.32;50.10;101078.41;10161363;29;20048;-59
2023/04/18 09:59:35;;;;;;;6.43;4.63;;;;;;;16.49;49.42;101076.22;10161349;29;20123;-59
2023/04/18 10:04:37;;;;;;;5.85;3.97;;;;;;;16.68;49.29;101077.41;10163932;29;20052;-61
2023/04/18 10:09:43;;;;;;;7.40;4.38;;;;;;;16.96;48.98;101074.69;10157730;29;20049;-60
2023/04/18 10:14:45;;;;;;;13.10;6.20;;;;;;;16.91;49.04;101071.75;10159562;29;20052;-58
2023/04/18 10:20:04;;;;;;;6.85;5.18;;;;;;;16.99;48.95;101077.03;10162699;29;20067;-59
2023/04/18 10:25:06;;;;;;;6.65;4.45;;;;;;;17.37;48.20;101071.13;10162441;29;20066;-60
2023/04/18 10:30:08;;;;;;;4.75;3.47;;;;;;;17.66;47.67;101052.84;10142035;29;20056;-61
2023/04/18 10:35:10;;;;;;;6.53;4.20;;;;;;;17.84;47.53;101059.38;10163242;29;20433;-59
2023/04/18 10:40:11;;;;;;;7.35;3.95;;;;;;;17.69;47.51;101064.13;10157121;29;20465;-59
2023/04/18 10:45:19;;;;;;;5.57;4.05;;;;;;;17.71;47.17;101056.59;10153774;29;20052;-59
2023/04/18 10:50:21;;;;;;;5.55;3.67;;;;;;;17.76;47.35;101056.00;10164445;29;20044;-57
2023/04/18 10:55:27;;;;;;;5.55;4.15;;;;;;;17.64;47.25;101053.88;10162516;29;20053;-59
2023/04/18 11:00:29;;;;;;;4.85;3.15;;;;;;;17.99;47.02;101056.47;10148933;29;20088;-59
2023/04/18 11:05:31;;;;;;;3.60;2.70;;;;;;;18.41;46.26;101043.50;10146134;29;20055;-58
2023/04/18 11:10:32;;;;;;;3.33;2.58;;;;;;;18.74;46.16;101026.28;10149632;29;20436;-58
2023/04/18 11:15:35;;;;;;;2.90;2.60;;;;;;;19.00;45.68;101028.09;10146718;29;20045;-57
2023/04/18 11:20:44;;;;;;;3.22;2.63;;;;;;;18.98;45.54;101021.22;10143287;29;20052;-57
2023/04/18 11:25:49;;;;;;;4.00;2.63;;;;;;;19.03;45.06;101018.66;10142719;29;20112;-57
2023/04/18 11:30:50;;;;;;;3.92;2.92;;;;;;;19.15;44.81;101005.19;10139771;29;20044;-59
2023/04/18 11:35:57;;;;;;;3.63;2.78;;;;;;;19.32;44.41;100991.91;10142036;29;20057;-61
2023/04/18 11:41:01;;;;;;;3.60;2.53;;;;;;;19.30;44.11;100999.47;10139857;29;20060;-60
2023/04/18 11:46:02;;;;;;;3.22;2.53;;;;;;;19.38;44.00;101007.38;10126687;29;20091;-61
2023/04/18 11:51:05;;;;;;;2.95;2.63;;;;;;;19.08;44.38;101012.56;10134028;29;20416;-60
2023/04/18 11:56:06;;;;;;;4.78;2.33;;;;;;;18.98;44.45;101013.03;10135335;29;20077;-64
2023/04/18 12:01:34;;;;;;;3.03;2.33;;;;;;;18.94;44.71;101007.16;10131197;29;20099;-66
2023/04/18 12:06:49;;;;;;;4.00;3.00;;;;;;;18.67;44.96;101014.53;10118604;29;20044;-66
2023/04/18 12:12:01;;;;;;;2.63;2.40;;;;;;;18.67;44.99;101019.16;10145515;29;20111;-65
2023/04/18 12:17:03;;;;;;;4.70;3.78;;;;;;;18.65;45.20;101022.09;10144511;29;20098;-65
2023/04/18 12:22:08;;;;;;;3.67;2.65;;;;;;;18.72;45.10;101014.75;10147952;29;20059;-66
2023/04/18 12:27:10;;;;;;;3.15;2.58;;;;;;;18.55;45.12;101018.97;10142911;29;20119;-65
2023/04/18 12:32:12;;;;;;;4.10;2.65;;;;;;;18.48;45.21;101013.53;10146550;29;20048;-66
2023/04/18 12:37:13;;;;;;;3.20;2.40;;;;;;;18.43;45.15;101011.44;10145656;29;20075;-64
2023/04/18 12:42:15;;;;;;;2.38;2.05;;;;;;;18.60;45.12;101006.41;10142659;29;20091;-65
2023/04/18 12:47:16;;;;;;;2.75;2.15;;;;;;;18.81;44.28;101002.59;10147394;29;20516;-66
2023/04/18 12:52:17;;;;;;;3.60;2.15;;;;;;;19.30;43.48;101010.38;10150548;29;20302;-66
2023/04/18 12:57:19;;;;;;;3.17;2.25;;;;;;;19.26;43.84;101017.31;10144147;29;20147;-66
2023/04/18 13:02:21;;;;;;;5.18;2.42;;;;;;;19.13;44.22;101015.47;10141241;29;20067;-66
2023/04/18 13:07:23;;;;;;;4.88;3.30;;;;;;;18.85;44.86;101026.69;10134340;29;20073;-67
2023/04/18 13:12:25;;;;;;;4.93;3.30;;;;;;;18.59;45.41;101017.50;10150161;29;20056;-65
2023/04/18 13:17:26;;;;;;;4.93;3.50;;;;;;;18.68;45.30;101020.81;10137762;29;20530;-66
2023/04/18 13:22:29;;;;;;;5.45;3.88;;;;;;;18.63;45.40;101016.84;10140323;29;20464;-66
2023/04/18 13:27:31;;;;;;;4.18;3.60;;;;;;;18.45;45.73;101018.59;10144397;29;20072;-66
2023/04/18 13:32:32;;;;;;;5.93;4.80;;;;;;;18.31;46.10;101020.47;10145629;29;20060;-66
2023/04/18 13:37:34;;;;;;;5.28;4.32;;;;;;;18.14;46.14;101017.34;10143806;29;20052;-65
2023/04/18 13:42:37;;;;;;;5.57;4.53;;;;;;;17.99;46.33;101021.09;10129728;29;20102;-66
2023/04/18 13:47:38;;;;;;;6.68;4.47;;;;;;;17.97;46.69;101017.75;10134272;29;20165;-65
2023/04/18 13:52:40;;;;;;;11.13;4.70;;;;;;;17.86;47.01;101009.38;10142591;29;20055;-66
2023/04/18 13:57:41;;;;;;;7.05;4.05;;;;;;;17.97;46.92;101020.47;10144531;29;20139;-66
2023/04/18 14:02:42;;;;;;;5.78;4.65;;;;;;;18.14;46.05;101017.34;10139036;29;20109;-68
2023/04/18 14:07:44;;;;;;;7.10;4.43;;;;;;;18.55;45.29;101008.91;10126948;29;20048;-66
2023/04/18 14:12:45;;;;;;;5.15;4.47;;;;;;;18.72;45.01;101014.75;10145393;29;20080;-67
2023/04/18 14:17:47;;;;;;;7.65;4.68;;;;;;;18.82;44.88;101006.19;10142510;29;20083;-67
2023/04/18 14:22:49;;;;;;;7.43;5.10;;;;;;;18.79;44.85;101012.88;10148486;29;20135;-67
2023/04/18 14:28:08;;;;;;;6.00;5.15;;;;;;;18.76;44.69;101002.38;10148655;29;20137;-67
2023/04/18 14:33:09;;;;;;;8.73;6.20;;;;;;;18.81;44.56;101005.31;10144740;29;20052;-68
2023/04/18 14:38:11;;;;;;;9.95;6.47;;;;;;;19.28;44.23;101005.13;10145380;29;20086;-67
2023/04/18 14:43:12;;;;;;;8.15;6.60;;;;;;;19.54;43.78;101006.03;10147479;29;20115;-66
2023/04/18 14:48:14;;;;;;;10.38;5.88;;;;;;;19.33;43.94;101021.69;10129145;29;20485;-67
2023/04/18 14:53:16;;;;;;;6.72;5.95;;;;;;;19.13;44.00;101010.84;10145813;29;20694;-67
2023/04/18 14:58:17;;;;;;;6.40;5.70;;;;;;;18.88;43.85;101013.47;10146042;29;20107;-67
2023/04/18 15:03:18;;;;;;;6.78;5.18;;;;;;;18.77;43.91;101012.22;10143094;29;20048;-66
2023/04/18 15:08:20;;;;;;;6.50;5.85;;;;;;;18.49;44.55;101008.94;10145831;29;20056;-66
2023/04/18 15:13:22;;;;;;;6.85;5.60;;;;;;;18.49;44.66;101004.31;10140513;29;20048;-66
2023/04/18 15:18:23;;;;;;;6.40;5.43;;;;;;;18.52;44.46;101008.50;10141411;29;20060;-66
2023/04/18 15:23:25;;;;;;;7.07;5.32;;;;;;;18.58;44.30;101007.66;10141776;29;20440;-66
2023/04/18 15:28:26;;;;;;;7.50;5.45;;;;;;;18.49;44.20;101012.50;10140819;29;20056;-66
2023/04/18 15:33:28;;;;;;;6.63;5.85;;;;;;;18.59;44.03;101003.88;10117363;29;20068;-67
2023/04/18 15:38:29;;;;;;;7.05;5.15;;;;;;;19.03;43.48;101003.13;10143392;29;20052;-66
2023/04/18 15:43:33;;;;;;;6.40;5.10;;;;;;;19.24;43.05;101008.53;10144854;29;20059;-66
2023/04/18 15:48:35;;;;;;;6.00;4.82;;;;;;;19.43;42.66;101007.56;10146628;29;20111;-66
2023/04/18 15:53:36;;;;;;;7.30;4.63;;;;;;;19.56;42.54;101002.03;10140167;29;20052;-67
2023/04/18 15:58:38;;;;;;;6.53;4.65;;;;;;;19.52;42.78;101011.72;10136445;29;20538;-66
2023/04/18 16:03:39;;;;;;;10.10;5.20;;;;;;;19.81;42.29;101015.75;10135736;29;20048;-66
2023/04/18 16:08:41;;;;;;;6.45;5.20;;;;;;;19.73;42.40;101010.56;10132190;29;20057;-66
2023/04/18 16:13:42;;;;;;;6.85;4.95;;;;;;;19.46;42.38;101017.22;10137992;29;20083;-66
2023/04/18 16:18:44;;;;;;;6.43;4.60;;;;;;;19.09;43.03;101025.13;10132638;29;20056;-66
2023/04/18 16:23:45;;;;;;;6.70;4.30;;;;;;;18.81;43.00;101039.91;10137784;29;20088;-66
2023/04/18 16:28:47;;;;;;;6.25;4.47;;;;;;;18.43;43.46;101046.84;10139651;29;20106;-67
2023/04/18 16:33:51;;;;;;;7.63;4.13;;;;;;;18.15;43.71;101047.06;10137459;29;20048;-66
2023/04/18 16:38:52;;;;;;;5.88;4.07;;;;;;;17.91;44.23;101050.38;10141754;29;20620;-66
2023/04/18 16:43:54;;;;;;;5.47;3.60;;;;;;;17.67;44.42;101049.06;10132191;29;20489;-65
2023/04/18 16:48:55;;;;;;;5.60;3.92;;;;;;;17.43;44.58;101054.84;10138095;29;20534;-65
2023/04/18 16:53:57;;;;;;;4.20;3.45;;;;;;;17.14;44.91;101047.84;10142694;29;20060;-66
2023/04/18 16:58:58;;;;;;;4.70;3.25;;;;;;;17.14;44.99;101066.88;10141525;29;20195;-65
2023/04/18 17:04:00;;;;;;;5.88;3.95;;;;;;;16.90;45.84;101065.47;10149818;29;20530;-66
2023/04/18 17:09:05;;;;;;;7.88;4.82;;;;;;;16.68;46.29;101061.13;10146562;29;20068;-65
2023/04/18 17:14:07;;;;;;;6.72;5.15;;;;;;;16.44;46.58;101074.94;10143697;29;20522;-66
2023/04/18 17:19:09;;;;;;;5.43;4.05;;;;;;;16.40;46.52;101073.66;10146291;29;20108;-65
2023/04/18 17:24:10;;;;;;;6.15;4.30;;;;;;;16.31;47.00;101074.84;10149677;29;20466;-65
2023/04/18 17:29:12;;;;;;;10.75;4.38;;;;;;;16.20;47.35;101078.91;10146665;29;20072;-65
2023/04/18 17:34:13;;;;;;;6.15;3.92;;;;;;;16.05;47.61;101087.16;10146596;29;20085;-65
2023/04/18 17:39:15;;;;;;;5.70;3.72;;;;;;;15.88;47.74;101090.28;10146156;29;20496;-66
2023/04/18 17:44:17;;;;;;;7.70;4.60;;;;;;;15.72;48.32;101096.75;10147190;29;20057;-65
2023/04/18 17:49:19;;;;;;;6.22;3.80;;;;;;;15.52;48.57;101088.41;10143078;29;20107;-65
2023/04/18 17:54:21;;;;;;;6.97;5.03;;;;;;;15.50;48.51;101101.28;10145437;29;20207;-65
2023/04/18 17:59:22;;;;;;;7.65;6.03;;;;;;;15.42;48.77;101105.81;10145939;29;20112;-65
2023/04/18 18:04:24;;;;;;;7.68;5.18;;;;;;;15.36;49.14;101111.97;10141667;29;20100;-65
2023/04/18 18:09:27;;;;;;;9.35;5.03;;;;;;;15.31;49.47;101121.72;10148652;29;20510;-65
2023/04/18 18:14:28;;;;;;;6.97;4.88;;;;;;;15.23;49.62;101128.88;10153074;29;20136;-64
2023/04/18 18:19:30;;;;;;;8.27;5.28;;;;;;;15.19;49.72;101127.59;10147008;29;20083;-65
2023/04/18 18:24:31;;;;;;;7.53;4.63;;;;;;;15.13;50.13;101138.34;10143693;29;20072;-66
2023/04/18 18:29:33;;;;;;;8.32;5.22;;;;;;;15.07;50.24;101135.34;10145145;29;20670;-65
2023/04/18 18:34:35;;;;;;;8.77;6.20;;;;;;;15.02;50.64;101145.03;10143717;29;20100;-65
2023/04/18 18:39:36;;;;;;;8.85;6.10;;;;;;;14.90;50.97;101138.41;10144225;29;20100;-66
2023/04/18 18:44:37;;;;;;;8.45;5.03;;;;;;;14.83;51.21;101141.00;10140849;29;20093;-66
2023/04/18 18:49:39;;;;;;;7.40;5.35;;;;;;;14.73;51.50;101154.81;10145959;29;20064;-66
2023/04/18 18:54:41;;;;;;;9.55;5.85;;;;;;;14.72;51.70;101160.41;10147620;29;20059;-65
2023/04/18 18:59:42;;;;;;;6.40;4.80;;;;;;;14.75;51.96;101165.44;10138804;29;20064;-65
2023/04/18 19:04:43;;;;;;;8.60;5.57;;;;;;;14.65;52.15;101168.41;10141442;29;20056;-65
2023/04/18 19:09:45;;;;;;;12.38;6.68;;;;;;;14.61;52.39;101167.94;10143023;29;20108;-66
2023/04/18 19:14:48;;;;;;;16.95;9.63;;;;;;;14.66;52.30;101168.22;10140075;29;20049;-66
2023/04/18 19:19:51;;;;;;;8.45;6.50;;;;;;;14.65;52.56;101171.97;10143443;29;20124;-66
2023/04/18 19:24:52;;;;;;;8.63;5.75;;;;;;;14.66;52.82;101170.94;10140601;29;20052;-67
2023/04/18 19:29:53;;;;;;;7.78;5.85;;;;;;;14.60;53.08;101178.94;10137656;29;20143;-66
2023/04/18 19:34:55;;;;;;;9.30;5.95;;;;;;;14.62;52.98;101174.19;10140739;29;20120;-65
2023/04/18 19:39:56;;;;;;;7.25;5.45;;;;;;;14.59;53.36;101182.66;10140493;29;20112;-65
2023/04/18 19:44:59;;;;;;;10.32;6.13;;;;;;;14.52;53.27;101177.09;10137182;29;20531;-65
2023/04/18 19:50:00;;;;;;;7.38;5.55;;;;;;;14.53;53.53;101177.94;10138819;29;20059;-65
2023/04/18 19:55:01;;;;;;;9.93;6.78;;;;;;;14.51;53.71;101172.72;10139260;29;20056;-66
2023/04/18 20:00:05;;;;;;;9.63;6.18;;;;;;;14.42;53.90;101171.13;10139322;29;20131;-65
2023/04/18 20:05:07;;;;;;;9.23;5.70;;;;;;;14.39;53.98;101172.28;10143653;29;20139;-66
2023/04/18 20:10:10;;;;;;;9.10;5.55;;;;;;;14.40;54.31;101174.00;10142331;29;20451;-66
2023/04/18 20:15:11;;;;;;;7.57;5.80;;;;;;;14.41;54.19;101181.06;10140634;29;20056;-67
2023/04/18 20:20:12;;;;;;;7.13;4.95;;;;;;;14.42;54.26;101184.63;10141756;29;20048;-66
2023/04/18 20:25:14;;;;;;;7.50;5.32;;;;;;;14.42;54.20;101176.53;10139953;29;20060;-66
2023/04/18 20:30:15;;;;;;;7.93;5.13;;;;;;;14.40;54.17;101175.84;10141369;29;20531;-65
2023/04/18 20:35:18;;;;;;;7.93;4.72;;;;;;;14.39;54.41;101179.56;10144252;29;20055;-66
2023/04/18 20:40:20;;;;;;;6.80;4.28;;;;;;;14.34;54.44;101174.72;10146386;29;20464;-65
2023/04/18 20:45:23;;;;;;;7.22;4.55;;;;;;;14.35;54.42;101178.25;10174445;29;20052;-61
2023/04/18 20:50:24;;;;;;;7.38;4.15;;;;;;;14.34;54.90;101182.84;10176602;29;20053;-62
2023/04/18 20:55:26;;;;;;;6.40;4.40;;;;;;;14.27;55.01;101176.44;10173367;29;20048;-62
2023/04/18 21:00:28;;;;;;;7.35;4.30;;;;;;;14.22;55.37;101181.56;10173829;29;20053;-62
2023/04/18 21:05:30;;;;;;;6.03;4.55;;;;;;;14.22;55.23;101184.28;10163513;29;20491;-62
2023/04/18 21:10:32;;;;;;;5.88;4.30;;;;;;;14.19;55.48;101187.31;10179783;29;20048;-62
2023/04/18 21:15:34;;;;;;;6.63;4.25;;;;;;;14.11;55.71;101187.38;10180201;29;20063;-61
2023/04/18 21:20:36;;;;;;;8.35;4.40;;;;;;;14.08;55.79;101185.88;10177643;29;20524;-62
2023/04/18 21:25:37;;;;;;;6.22;4.13;;;;;;;14.02;56.01;101184.72;10185637;29;20053;-61
2023/04/18 21:30:39;;;;;;;5.18;3.55;;;;;;;13.99;56.20;101187.78;10175140;29;20077;-61
2023/04/18 21:35:40;;;;;;;5.53;3.92;;;;;;;13.94;56.54;101183.91;10174596;29;20172;-62
2023/04/18 21:40:41;;;;;;;6.22;2.92;;;;;;;13.89;56.42;101182.59;10180894;29;20071;-61
2023/04/18 21:45:44;;;;;;;5.22;3.80;;;;;;;13.91;56.81;101190.53;10173053;29;20053;-61
2023/04/18 21:50:52;;;;;;;6.30;3.85;;;;;;;13.90;56.80;101188.84;10175781;29;20696;-61
2023/04/18 21:55:54;;;;;;;4.82;3.35;;;;;;;13.93;56.69;101188.50;10174521;29;20044;-61
2023/04/18 22:00:55;;;;;;;5.38;4.10;;;;;;;13.99;56.79;101185.06;10181337;29;20063;-61
2023/04/18 22:05:57;;;;;;;5.07;2.97;;;;;;;13.97;56.85;101187.13;10176516;29;20079;-62
2023/04/18 22:10:59;;;;;;;4.13;2.90;;;;;;;13.97;56.83;101184.41;10177516;29;20052;-61
2023/04/18 22:16:01;;;;;;;4.55;3.50;;;;;;;13.93;56.96;101180.38;10181981;29;20116;-61
2023/04/18 22:21:03;;;;;;;4.82;3.20;;;;;;;13.86;57.34;101179.41;10185895;29;20068;-61
2023/04/18 22:26:05;;;;;;;6.07;3.10;;;;;;;13.77;57.53;101184.00;10179724;29;20056;-62
2023/04/18 22:31:06;;;;;;;4.30;3.03;;;;;;;13.77;57.36;101175.91;10181919;29;20159;-61
2023/04/18 22:36:08;;;;;;;3.83;2.90;;;;;;;13.67;57.93;101178.81;10178499;29;20052;-61
2023/04/18 22:41:09;;;;;;;4.80;3.50;;;;;;;13.73;57.76;101179.97;10177957;29;20059;-61
2023/04/18 22:46:10;;;;;;;4.15;3.10;;;;;;;13.69;57.83;101175.94;10184843;29;20048;-61
2023/04/18 22:51:13;;;;;;;5.65;3.45;;;;;;;13.73;57.85;101179.97;10177992;29;20103;-62
2023/04/18 22:56:15;;;;;;;4.47;3.25;;;;;;;13.74;57.88;101178.13;10182848;29;20051;-61
2023/04/18 23:01:16;;;;;;;4.65;3.28;;;;;;;13.72;57.83;101180.16;10186023;29;20052;-62
2023/04/18 23:06:18;;;;;;;5.05;3.75;;;;;;;13.77;57.77;101175.06;10175989;29;20064;-61
2023/04/18 23:11:20;;;;;;;5.78;4.03;;;;;;;13.74;57.68;101183.50;10181992;29;20056;-61